PGT1794 ESSA-LTFJ
Flight info
| Callsign | PGT1794 |
|---|---|
| Flight time | 3h 8m |
| Altitude | 36000 |
| Route | BABAP T316 NEPVA DCT PENOR N133 LENOV DCT RAZEC DCT KEKED DCT BADOR DCT CONWI DCT LAMIT DCT TIMUR L606 ADORU UM19 IBODU |
| Aircraft | A320/M-SDE3FGHIRWY/LB1 |
Departure
| Time | 2026-05-04 19:00 |
|---|---|
| Airport | Stockholm-Arlanda Airport (ESSA) |
Arrival
| Time | 2026-05-04 22:09 |
|---|---|
| Airport | Istanbul Sabiha Gökçen International Airport (LTFJ) |
| Time | Latitude | Longitude | Altitude | Speed | Heading |
|---|---|---|---|---|---|
| 2026-05-04 18:40 | 59.65397 | 17.93534 | 138 ft | 0 kts | 75° |
| 2026-05-04 18:50 | 59.65394 | 17.93510 | 137 ft | 2 kts | 75° |
| 2026-05-04 18:50 | 59.65389 | 17.93477 | 137 ft | 2 kts | 75° |
| 2026-05-04 18:50 | 59.65385 | 17.93444 | 137 ft | 2 kts | 75° |
| 2026-05-04 18:51 | 59.65380 | 17.93412 | 137 ft | 2 kts | 38° |
| 2026-05-04 18:51 | 59.65369 | 17.93401 | 137 ft | 0 kts | 344° |
| 2026-05-04 18:54 | 59.65374 | 17.93397 | 137 ft | 1 kts | 344° |
| 2026-05-04 18:54 | 59.65386 | 17.93391 | 137 ft | 5 kts | 344° |
| 2026-05-04 18:55 | 59.65415 | 17.93374 | 137 ft | 5 kts | 343° |
| 2026-05-04 18:55 | 59.65505 | 17.93326 | 137 ft | 6 kts | 325° |
| 2026-05-04 18:55 | 59.65518 | 17.93216 | 138 ft | 10 kts | 261° |
| 2026-05-04 18:56 | 59.65503 | 17.93079 | 138 ft | 11 kts | 256° |
| 2026-05-04 18:56 | 59.65481 | 17.92933 | 138 ft | 12 kts | 250° |
| 2026-05-04 18:56 | 59.65449 | 17.92778 | 138 ft | 12 kts | 246° |
| 2026-05-04 18:56 | 59.65447 | 17.92630 | 138 ft | 11 kts | 303° |
| 2026-05-04 18:57 | 59.65511 | 17.92546 | 138 ft | 10 kts | 340° |
| 2026-05-04 18:57 | 59.65575 | 17.92508 | 138 ft | 10 kts | 343° |
| 2026-05-04 18:57 | 59.65638 | 17.92472 | 138 ft | 12 kts | 344° |
| 2026-05-04 18:57 | 59.65709 | 17.92437 | 138 ft | 10 kts | 348° |
| 2026-05-04 18:58 | 59.65767 | 17.92425 | 138 ft | 7 kts | 0° |
| 2026-05-04 18:58 | 59.65808 | 17.92438 | 138 ft | 7 kts | 9° |
| 2026-05-04 18:58 | 59.65869 | 17.92450 | 138 ft | 8 kts | 349° |
| 2026-05-04 18:58 | 59.65904 | 17.92386 | 138 ft | 6 kts | 297° |
| 2026-05-04 18:59 | 59.65919 | 17.92292 | 140 ft | 7 kts | 283° |
| 2026-05-04 18:59 | 59.65928 | 17.92198 | 144 ft | 4 kts | 273° |
| 2026-05-04 18:59 | 59.65919 | 17.92150 | 145 ft | 8 kts | 238° |
| 2026-05-04 18:59 | 59.65869 | 17.92100 | 145 ft | 8 kts | 192° |
| 2026-05-04 19:00 | 59.65764 | 17.92060 | 143 ft | 40 kts | 190° |
| 2026-05-04 19:00 | 59.65220 | 17.91861 | 144 ft | 116 kts | 191° |
| 2026-05-04 19:00 | 59.64226 | 17.91499 | 165 ft | 170 kts | 191° |
| 2026-05-04 19:00 | 59.63042 | 17.91069 | 798 ft | 181 kts | 194° |
| 2026-05-04 19:01 | 59.61713 | 17.90651 | 1239 ft | 205 kts | 192° |
| 2026-05-04 19:01 | 59.60258 | 17.90417 | 1818 ft | 213 kts | 191° |
| 2026-05-04 19:01 | 59.58261 | 17.90198 | 2763 ft | 217 kts | 190° |
| 2026-05-04 19:01 | 59.57252 | 17.90282 | 3210 ft | 226 kts | 172° |
| 2026-05-04 19:02 | 59.55848 | 17.91841 | 3867 ft | 242 kts | 138° |
| 2026-05-04 19:02 | 59.54694 | 17.94291 | 4554 ft | 247 kts | 132° |
| 2026-05-04 19:02 | 59.53930 | 17.97358 | 4919 ft | 254 kts | 96° |
| 2026-05-04 19:02 | 59.54206 | 18.00747 | 4997 ft | 262 kts | 56° |
| 2026-05-04 19:03 | 59.55435 | 18.03521 | 5007 ft | 275 kts | 37° |
| 2026-05-04 19:03 | 59.56874 | 18.06047 | 5003 ft | 278 kts | 36° |
| 2026-05-04 19:03 | 59.58339 | 18.08563 | 5002 ft | 279 kts | 35° |
| 2026-05-04 19:03 | 59.59813 | 18.11099 | 5060 ft | 283 kts | 36° |
| 2026-05-04 19:04 | 59.61139 | 18.13939 | 5873 ft | 288 kts | 51° |
| 2026-05-04 19:04 | 59.62070 | 18.17473 | 6672 ft | 296 kts | 71° |
| 2026-05-04 19:04 | 59.62297 | 18.21532 | 7414 ft | 302 kts | 96° |
| 2026-05-04 19:04 | 59.61666 | 18.25466 | 8174 ft | 303 kts | 123° |
| 2026-05-04 19:05 | 59.60275 | 18.28504 | 8908 ft | 299 kts | 149° |
| 2026-05-04 19:05 | 59.58412 | 18.30148 | 9657 ft | 292 kts | 172° |
| 2026-05-04 19:05 | 59.56375 | 18.30984 | 10015 ft | 309 kts | 174° |
| 2026-05-04 19:05 | 59.54188 | 18.31845 | 10161 ft | 332 kts | 173° |
| 2026-05-04 19:06 | 59.51848 | 18.32767 | 10299 ft | 354 kts | 173° |
| 2026-05-04 19:06 | 59.49366 | 18.33761 | 10518 ft | 371 kts | 173° |
| 2026-05-04 19:06 | 59.46821 | 18.34810 | 11054 ft | 377 kts | 173° |
| 2026-05-04 19:06 | 59.44248 | 18.35888 | 11631 ft | 380 kts | 173° |
| 2026-05-04 19:07 | 59.41642 | 18.36983 | 12260 ft | 384 kts | 174° |
| 2026-05-04 19:07 | 59.39023 | 18.38070 | 12892 ft | 386 kts | 174° |
| 2026-05-04 19:07 | 59.36380 | 18.39148 | 13459 ft | 390 kts | 174° |
| 2026-05-04 19:07 | 59.33713 | 18.40225 | 13988 ft | 393 kts | 175° |
| 2026-05-04 19:08 | 59.31029 | 18.41304 | 14510 ft | 395 kts | 175° |
| 2026-05-04 19:08 | 59.28329 | 18.42391 | 15016 ft | 398 kts | 175° |
| 2026-05-04 19:08 | 59.25607 | 18.43491 | 15518 ft | 401 kts | 175° |
| 2026-05-04 19:08 | 59.22859 | 18.44604 | 16019 ft | 404 kts | 175° |
| 2026-05-04 19:09 | 59.20097 | 18.45722 | 16519 ft | 406 kts | 175° |
| 2026-05-04 19:09 | 59.17312 | 18.46848 | 16989 ft | 409 kts | 175° |
| 2026-05-04 19:09 | 59.14517 | 18.47979 | 17457 ft | 412 kts | 175° |
| 2026-05-04 19:09 | 59.11700 | 18.49119 | 17893 ft | 415 kts | 175° |
| 2026-05-04 19:10 | 59.08917 | 18.50245 | 18295 ft | 417 kts | 175° |
| 2026-05-04 19:10 | 59.06067 | 18.51389 | 18682 ft | 420 kts | 175° |
| 2026-05-04 19:10 | 59.03152 | 18.52548 | 19068 ft | 423 kts | 175° |
| 2026-05-04 19:10 | 59.00291 | 18.53675 | 19440 ft | 426 kts | 175° |
| 2026-05-04 19:11 | 58.97380 | 18.54823 | 19818 ft | 428 kts | 175° |
| 2026-05-04 19:11 | 58.94440 | 18.55633 | 20185 ft | 424 kts | 184° |
| 2026-05-04 19:11 | 58.91514 | 18.55573 | 20545 ft | 418 kts | 193° |
| 2026-05-04 19:11 | 58.88666 | 18.54661 | 20903 ft | 413 kts | 201° |
| 2026-05-04 19:12 | 58.85876 | 18.53341 | 21256 ft | 415 kts | 201° |
| 2026-05-04 19:12 | 58.80224 | 18.50699 | 21872 ft | 421 kts | 200° |
| 2026-05-04 19:12 | 58.77365 | 18.49375 | 22201 ft | 423 kts | 200° |
| 2026-05-04 19:13 | 58.74486 | 18.48047 | 22534 ft | 426 kts | 200° |
| 2026-05-04 19:13 | 58.71597 | 18.46714 | 22874 ft | 428 kts | 200° |
| 2026-05-04 19:13 | 58.68691 | 18.45371 | 23205 ft | 430 kts | 200° |
| 2026-05-04 19:13 | 58.65768 | 18.44019 | 23486 ft | 433 kts | 200° |
| 2026-05-04 19:14 | 58.62834 | 18.42666 | 23769 ft | 434 kts | 200° |
| 2026-05-04 19:14 | 58.59880 | 18.41312 | 24052 ft | 436 kts | 200° |
| 2026-05-04 19:14 | 58.56925 | 18.39962 | 24321 ft | 438 kts | 200° |
| 2026-05-04 19:14 | 58.53995 | 18.38626 | 24507 ft | 440 kts | 200° |
| 2026-05-04 19:15 | 58.50968 | 18.37247 | 24744 ft | 442 kts | 200° |
| 2026-05-04 19:15 | 58.48025 | 18.35911 | 24990 ft | 444 kts | 200° |
| 2026-05-04 19:15 | 58.45012 | 18.34541 | 25232 ft | 446 kts | 200° |
| 2026-05-04 19:15 | 58.41986 | 18.33166 | 25477 ft | 447 kts | 200° |
| 2026-05-04 19:16 | 58.38960 | 18.31793 | 25730 ft | 448 kts | 200° |
| 2026-05-04 19:16 | 58.35919 | 18.30415 | 25982 ft | 450 kts | 200° |
| 2026-05-04 19:16 | 58.32866 | 18.29031 | 26245 ft | 450 kts | 200° |
| 2026-05-04 19:16 | 58.29814 | 18.27647 | 26590 ft | 449 kts | 200° |
| 2026-05-04 19:17 | 58.26777 | 18.26269 | 26864 ft | 449 kts | 199° |
| 2026-05-04 19:17 | 58.23733 | 18.24895 | 27164 ft | 449 kts | 199° |
| 2026-05-04 19:17 | 58.20689 | 18.23531 | 27495 ft | 449 kts | 199° |
| 2026-05-04 19:17 | 58.17655 | 18.22177 | 27844 ft | 448 kts | 199° |
| 2026-05-04 19:18 | 58.14627 | 18.20824 | 28192 ft | 447 kts | 199° |
| 2026-05-04 19:18 | 58.11600 | 18.19468 | 28546 ft | 446 kts | 199° |
| 2026-05-04 19:18 | 58.08588 | 18.18115 | 28894 ft | 445 kts | 199° |
| 2026-05-04 19:18 | 58.05607 | 18.16783 | 29251 ft | 444 kts | 199° |
| 2026-05-04 19:19 | 58.02605 | 18.15448 | 29605 ft | 443 kts | 199° |
| 2026-05-04 19:19 | 57.99601 | 18.14116 | 29890 ft | 443 kts | 199° |
| 2026-05-04 19:19 | 57.96610 | 18.12788 | 30149 ft | 443 kts | 199° |
| 2026-05-04 19:19 | 57.93594 | 18.11451 | 30419 ft | 443 kts | 199° |
| 2026-05-04 19:20 | 57.90603 | 18.10130 | 30686 ft | 442 kts | 199° |
| 2026-05-04 19:20 | 57.87608 | 18.08810 | 30952 ft | 442 kts | 199° |
| 2026-05-04 19:20 | 57.84619 | 18.07499 | 31232 ft | 441 kts | 199° |
| 2026-05-04 19:20 | 57.81634 | 18.06191 | 31503 ft | 441 kts | 199° |
| 2026-05-04 19:21 | 57.78646 | 18.04882 | 31773 ft | 440 kts | 199° |
| 2026-05-04 19:21 | 57.75661 | 18.03573 | 32033 ft | 440 kts | 199° |
| 2026-05-04 19:21 | 57.72684 | 18.02274 | 32249 ft | 440 kts | 198° |
| 2026-05-04 19:21 | 57.69690 | 18.00975 | 32476 ft | 441 kts | 198° |
| 2026-05-04 19:22 | 57.66700 | 17.99675 | 32724 ft | 441 kts | 198° |
| 2026-05-04 19:22 | 57.63721 | 17.98377 | 33006 ft | 440 kts | 198° |
| 2026-05-04 19:22 | 57.60731 | 17.97077 | 33275 ft | 440 kts | 198° |
| 2026-05-04 19:22 | 57.57797 | 17.95806 | 33527 ft | 440 kts | 198° |
| 2026-05-04 19:23 | 57.54818 | 17.94515 | 33794 ft | 439 kts | 199° |
| 2026-05-04 19:23 | 57.51847 | 17.93230 | 34023 ft | 439 kts | 198° |
| 2026-05-04 19:23 | 57.48828 | 17.91927 | 34240 ft | 439 kts | 198° |
| 2026-05-04 19:23 | 57.45899 | 17.90661 | 34447 ft | 438 kts | 198° |
| 2026-05-04 19:24 | 57.42922 | 17.89377 | 34649 ft | 438 kts | 198° |
| 2026-05-04 19:24 | 57.39956 | 17.88101 | 34855 ft | 438 kts | 198° |
| 2026-05-04 19:24 | 57.36986 | 17.86829 | 35052 ft | 438 kts | 198° |
| 2026-05-04 19:24 | 57.34022 | 17.85564 | 35227 ft | 438 kts | 198° |
| 2026-05-04 19:25 | 57.31045 | 17.84300 | 35424 ft | 438 kts | 198° |
| 2026-05-04 19:25 | 57.28072 | 17.83040 | 35594 ft | 438 kts | 198° |
| 2026-05-04 19:25 | 57.25114 | 17.81784 | 35765 ft | 438 kts | 198° |
| 2026-05-04 19:26 | 57.19157 | 17.79242 | 35817 ft | 440 kts | 198° |
| 2026-05-04 19:26 | 57.13179 | 17.76712 | 35827 ft | 441 kts | 198° |
| 2026-05-04 19:27 | 57.07200 | 17.74191 | 35832 ft | 441 kts | 198° |
| 2026-05-04 19:27 | 57.01217 | 17.71665 | 35833 ft | 441 kts | 198° |
| 2026-05-04 19:28 | 56.95235 | 17.69175 | 35844 ft | 441 kts | 198° |
| 2026-05-04 19:28 | 56.89281 | 17.66696 | 35824 ft | 441 kts | 198° |
| 2026-05-04 19:29 | 56.83284 | 17.64191 | 35830 ft | 442 kts | 198° |
| 2026-05-04 19:29 | 56.77290 | 17.61700 | 35846 ft | 442 kts | 198° |
| 2026-05-04 19:30 | 56.71285 | 17.59224 | 35855 ft | 442 kts | 198° |
| 2026-05-04 19:30 | 56.65285 | 17.56748 | 35836 ft | 442 kts | 197° |
| 2026-05-04 19:31 | 56.59325 | 17.54295 | 35850 ft | 442 kts | 197° |
| 2026-05-04 19:31 | 56.53321 | 17.51837 | 35859 ft | 442 kts | 197° |
| 2026-05-04 19:32 | 56.47311 | 17.49388 | 35865 ft | 442 kts | 197° |
| 2026-05-04 19:32 | 56.41303 | 17.46947 | 35851 ft | 443 kts | 197° |
| 2026-05-04 19:33 | 56.35289 | 17.44520 | 35875 ft | 442 kts | 197° |
| 2026-05-04 19:33 | 56.29276 | 17.42094 | 35881 ft | 442 kts | 197° |
| 2026-05-04 19:34 | 56.23279 | 17.39669 | 35891 ft | 441 kts | 197° |
| 2026-05-04 19:34 | 56.17331 | 17.37275 | 35894 ft | 441 kts | 198° |
| 2026-05-04 19:35 | 56.11339 | 17.34885 | 35891 ft | 440 kts | 198° |
| 2026-05-04 19:35 | 56.05366 | 17.32492 | 35903 ft | 439 kts | 198° |
| 2026-05-04 19:36 | 55.99398 | 17.30120 | 35912 ft | 438 kts | 198° |
| 2026-05-04 19:36 | 55.93452 | 17.27768 | 35915 ft | 438 kts | 198° |
| 2026-05-04 19:37 | 55.87512 | 17.25415 | 35896 ft | 437 kts | 198° |
| 2026-05-04 19:37 | 55.81580 | 17.23079 | 35913 ft | 436 kts | 198° |
| 2026-05-04 19:38 | 55.75655 | 17.20754 | 35915 ft | 435 kts | 198° |
| 2026-05-04 19:38 | 55.69787 | 17.18450 | 35924 ft | 435 kts | 198° |
| 2026-05-04 19:39 | 55.63679 | 17.17817 | 35925 ft | 449 kts | 178° |
| 2026-05-04 19:39 | 55.60587 | 17.19008 | 35910 ft | 458 kts | 167° |
| 2026-05-04 19:39 | 55.57619 | 17.21161 | 35920 ft | 463 kts | 161° |
| 2026-05-04 19:40 | 55.51735 | 17.25777 | 35931 ft | 461 kts | 163° |
| 2026-05-04 19:40 | 55.45800 | 17.29931 | 35943 ft | 459 kts | 165° |
| 2026-05-04 19:41 | 55.39834 | 17.33987 | 35940 ft | 459 kts | 165° |
| 2026-05-04 19:41 | 55.33881 | 17.38108 | 35943 ft | 459 kts | 164° |
| 2026-05-04 19:42 | 55.27955 | 17.42272 | 35941 ft | 458 kts | 165° |
| 2026-05-04 19:42 | 55.22087 | 17.46387 | 35952 ft | 457 kts | 165° |
| 2026-05-04 19:43 | 55.16173 | 17.50493 | 35943 ft | 457 kts | 165° |
| 2026-05-04 19:43 | 55.10267 | 17.54579 | 35954 ft | 456 kts | 165° |
| 2026-05-04 19:44 | 55.04368 | 17.58656 | 35957 ft | 456 kts | 165° |
| 2026-05-04 19:44 | 54.98466 | 17.62718 | 35945 ft | 456 kts | 165° |
| 2026-05-04 19:45 | 54.92558 | 17.66764 | 35954 ft | 456 kts | 165° |
| 2026-05-04 19:45 | 54.86660 | 17.70812 | 35948 ft | 455 kts | 165° |
| 2026-05-04 19:46 | 54.80770 | 17.74834 | 35951 ft | 455 kts | 165° |
| 2026-05-04 19:46 | 54.74866 | 17.78846 | 35964 ft | 455 kts | 165° |
| 2026-05-04 19:47 | 54.68971 | 17.82836 | 35964 ft | 455 kts | 165° |
| 2026-05-04 19:47 | 54.63066 | 17.86827 | 35977 ft | 456 kts | 165° |
| 2026-05-04 19:48 | 54.57165 | 17.90806 | 35974 ft | 455 kts | 165° |
| 2026-05-04 19:48 | 54.51261 | 17.94777 | 35980 ft | 455 kts | 165° |
| 2026-05-04 19:49 | 54.46351 | 17.98061 | 35970 ft | 455 kts | 165° |
| 2026-05-04 19:49 | 54.40443 | 18.01997 | 35944 ft | 456 kts | 165° |
| 2026-05-04 19:50 | 54.34530 | 18.05931 | 35956 ft | 456 kts | 165° |
| 2026-05-04 19:50 | 54.28597 | 18.09857 | 35964 ft | 456 kts | 165° |
| 2026-05-04 19:51 | 54.22714 | 18.13745 | 35975 ft | 457 kts | 165° |
| 2026-05-04 19:51 | 54.16788 | 18.17667 | 35983 ft | 457 kts | 165° |
| 2026-05-04 19:52 | 54.10859 | 18.21576 | 35954 ft | 457 kts | 165° |
| 2026-05-04 19:52 | 54.04919 | 18.25457 | 35946 ft | 457 kts | 165° |
| 2026-05-04 19:53 | 53.98991 | 18.29315 | 35953 ft | 457 kts | 165° |
| 2026-05-04 19:53 | 53.93055 | 18.33174 | 35962 ft | 457 kts | 165° |
| 2026-05-04 19:54 | 53.87105 | 18.37046 | 35961 ft | 457 kts | 165° |
| 2026-05-04 19:54 | 53.81173 | 18.40898 | 35938 ft | 457 kts | 165° |
| 2026-05-04 19:55 | 53.75268 | 18.44706 | 35953 ft | 457 kts | 165° |
| 2026-05-04 19:55 | 53.69319 | 18.48532 | 35952 ft | 457 kts | 165° |
| 2026-05-04 19:56 | 53.63375 | 18.52349 | 35947 ft | 457 kts | 164° |
| 2026-05-04 19:56 | 53.57423 | 18.56164 | 35955 ft | 457 kts | 165° |
| 2026-05-04 19:57 | 53.51468 | 18.59948 | 35943 ft | 457 kts | 164° |
| 2026-05-04 19:57 | 53.45528 | 18.63726 | 35955 ft | 457 kts | 164° |
| 2026-05-04 19:58 | 53.39578 | 18.67506 | 35957 ft | 457 kts | 164° |
| 2026-05-04 19:58 | 53.33613 | 18.71279 | 35961 ft | 457 kts | 164° |
| 2026-05-04 19:59 | 53.27657 | 18.75029 | 35967 ft | 458 kts | 164° |
| 2026-05-04 19:59 | 53.21733 | 18.78755 | 35935 ft | 457 kts | 164° |
| 2026-05-04 20:00 | 53.15771 | 18.82489 | 35946 ft | 457 kts | 164° |
| 2026-05-04 20:00 | 53.09817 | 18.86206 | 35965 ft | 457 kts | 164° |
| 2026-05-04 20:01 | 53.03862 | 18.89907 | 35965 ft | 457 kts | 164° |
| 2026-05-04 20:01 | 52.97901 | 18.93606 | 35947 ft | 457 kts | 164° |
| 2026-05-04 20:02 | 52.91930 | 18.97299 | 35941 ft | 457 kts | 164° |
| 2026-05-04 20:02 | 52.85965 | 19.00981 | 35935 ft | 458 kts | 164° |
| 2026-05-04 20:03 | 52.80030 | 19.04634 | 35936 ft | 458 kts | 164° |
| 2026-05-04 20:03 | 52.74054 | 19.08305 | 35937 ft | 458 kts | 164° |
| 2026-05-04 20:04 | 52.68069 | 19.11953 | 35921 ft | 458 kts | 164° |
| 2026-05-04 20:04 | 52.62077 | 19.15597 | 35928 ft | 459 kts | 163° |
| 2026-05-04 20:05 | 52.56080 | 19.19251 | 35931 ft | 459 kts | 163° |
| 2026-05-04 20:05 | 52.50090 | 19.22886 | 35936 ft | 459 kts | 163° |
| 2026-05-04 20:06 | 52.44087 | 19.26520 | 35934 ft | 460 kts | 163° |
| 2026-05-04 20:06 | 52.38090 | 19.30149 | 35925 ft | 459 kts | 163° |
| 2026-05-04 20:07 | 52.32085 | 19.33764 | 35937 ft | 459 kts | 163° |
| 2026-05-04 20:07 | 52.26091 | 19.37346 | 35942 ft | 459 kts | 163° |
| 2026-05-04 20:08 | 52.20081 | 19.40916 | 35947 ft | 459 kts | 163° |
| 2026-05-04 20:08 | 52.14119 | 19.44463 | 35950 ft | 459 kts | 163° |
| 2026-05-04 20:09 | 52.08118 | 19.48041 | 35940 ft | 459 kts | 163° |
| 2026-05-04 20:09 | 52.02124 | 19.51605 | 35946 ft | 459 kts | 163° |
| 2026-05-04 20:10 | 51.96125 | 19.55151 | 35952 ft | 459 kts | 163° |
| 2026-05-04 20:10 | 51.90112 | 19.58682 | 35956 ft | 459 kts | 163° |
| 2026-05-04 20:11 | 51.84104 | 19.62207 | 35958 ft | 459 kts | 163° |
| 2026-05-04 20:11 | 51.78095 | 19.65733 | 35959 ft | 459 kts | 163° |
| 2026-05-04 20:12 | 51.72083 | 19.69243 | 35960 ft | 459 kts | 163° |
| 2026-05-04 20:12 | 51.66071 | 19.72754 | 35944 ft | 459 kts | 163° |
| 2026-05-04 20:13 | 51.60087 | 19.76226 | 35946 ft | 460 kts | 163° |
| 2026-05-04 20:13 | 51.54064 | 19.79711 | 35941 ft | 460 kts | 163° |
| 2026-05-04 20:14 | 51.48035 | 19.83197 | 35950 ft | 460 kts | 163° |
| 2026-05-04 20:14 | 51.42008 | 19.86676 | 35969 ft | 460 kts | 163° |
| 2026-05-04 20:15 | 51.35986 | 19.90136 | 35966 ft | 460 kts | 163° |
| 2026-05-04 20:15 | 51.29952 | 19.93591 | 35966 ft | 460 kts | 163° |
| 2026-05-04 20:16 | 51.23916 | 19.97033 | 35955 ft | 460 kts | 163° |
| 2026-05-04 20:16 | 51.17878 | 20.00472 | 35962 ft | 460 kts | 163° |
| 2026-05-04 20:17 | 51.11839 | 20.03895 | 35976 ft | 460 kts | 163° |
| 2026-05-04 20:17 | 51.05840 | 20.07292 | 35979 ft | 460 kts | 163° |
| 2026-05-04 20:18 | 50.99810 | 20.10701 | 35966 ft | 460 kts | 162° |
| 2026-05-04 20:18 | 50.93773 | 20.14108 | 35971 ft | 460 kts | 163° |
| 2026-05-04 20:19 | 50.87737 | 20.17499 | 35976 ft | 460 kts | 162° |
| 2026-05-04 20:19 | 50.81705 | 20.20879 | 35983 ft | 460 kts | 162° |
| 2026-05-04 20:20 | 50.75683 | 20.24234 | 35986 ft | 459 kts | 162° |
| 2026-05-04 20:20 | 50.69661 | 20.27592 | 35978 ft | 459 kts | 162° |
| 2026-05-04 20:21 | 50.63629 | 20.30948 | 35985 ft | 459 kts | 162° |
| 2026-05-04 20:21 | 50.54601 | 20.35946 | 35984 ft | 459 kts | 162° |
| 2026-05-04 20:22 | 50.48566 | 20.39269 | 35985 ft | 459 kts | 162° |
| 2026-05-04 20:22 | 50.42587 | 20.42562 | 35979 ft | 458 kts | 162° |
| 2026-05-04 20:23 | 50.36568 | 20.45874 | 35985 ft | 458 kts | 162° |
| 2026-05-04 20:23 | 50.30548 | 20.49166 | 35983 ft | 458 kts | 162° |
| 2026-05-04 20:24 | 50.24528 | 20.52445 | 35985 ft | 458 kts | 162° |
| 2026-05-04 20:24 | 50.18510 | 20.55715 | 35976 ft | 458 kts | 162° |
| 2026-05-04 20:25 | 50.12483 | 20.58993 | 35986 ft | 458 kts | 162° |
| 2026-05-04 20:25 | 50.06462 | 20.62264 | 35992 ft | 457 kts | 162° |
| 2026-05-04 20:26 | 50.00447 | 20.65507 | 35999 ft | 457 kts | 162° |
| 2026-05-04 20:26 | 49.94448 | 20.68744 | 35991 ft | 457 kts | 162° |
| 2026-05-04 20:27 | 49.88447 | 20.71967 | 35999 ft | 456 kts | 162° |
| 2026-05-04 20:27 | 49.82474 | 20.75150 | 36006 ft | 457 kts | 162° |
| 2026-05-04 20:28 | 49.76466 | 20.78362 | 36006 ft | 457 kts | 162° |
| 2026-05-04 20:28 | 49.70455 | 20.81573 | 36016 ft | 457 kts | 162° |
| 2026-05-04 20:29 | 49.64438 | 20.84767 | 36006 ft | 458 kts | 162° |
| 2026-05-04 20:29 | 49.58415 | 20.87962 | 36020 ft | 458 kts | 162° |
| 2026-05-04 20:30 | 49.52387 | 20.91160 | 36020 ft | 458 kts | 162° |
| 2026-05-04 20:30 | 49.46361 | 20.94334 | 36031 ft | 458 kts | 162° |
| 2026-05-04 20:31 | 49.40329 | 20.97506 | 36040 ft | 458 kts | 162° |
| 2026-05-04 20:31 | 49.34285 | 21.00674 | 36032 ft | 459 kts | 163° |
| 2026-05-04 20:32 | 49.28131 | 21.03053 | 36029 ft | 458 kts | 167° |
| 2026-05-04 20:32 | 49.21937 | 21.05328 | 36026 ft | 458 kts | 167° |
| 2026-05-04 20:33 | 49.15723 | 21.07598 | 36033 ft | 458 kts | 167° |
| 2026-05-04 20:33 | 49.09509 | 21.09844 | 36039 ft | 459 kts | 168° |
| 2026-05-04 20:34 | 49.03279 | 21.11986 | 36041 ft | 459 kts | 168° |
| 2026-05-04 20:34 | 48.97043 | 21.14070 | 36050 ft | 459 kts | 168° |
| 2026-05-04 20:35 | 48.90794 | 21.16176 | 36051 ft | 460 kts | 168° |
| 2026-05-04 20:35 | 48.84549 | 21.18290 | 36047 ft | 460 kts | 168° |
| 2026-05-04 20:36 | 48.78299 | 21.20407 | 36049 ft | 460 kts | 168° |
| 2026-05-04 20:36 | 48.72079 | 21.22509 | 36053 ft | 461 kts | 168° |
| 2026-05-04 20:37 | 48.65829 | 21.24600 | 36052 ft | 460 kts | 168° |
| 2026-05-04 20:37 | 48.59570 | 21.26696 | 36050 ft | 460 kts | 168° |
| 2026-05-04 20:38 | 48.53338 | 21.28991 | 36046 ft | 461 kts | 160° |
| 2026-05-04 20:38 | 48.47596 | 21.33273 | 36042 ft | 461 kts | 149° |
| 2026-05-04 20:39 | 48.42041 | 21.38148 | 36044 ft | 462 kts | 149° |
| 2026-05-04 20:39 | 48.36466 | 21.43005 | 36043 ft | 463 kts | 149° |
| 2026-05-04 20:40 | 48.30928 | 21.47826 | 36048 ft | 463 kts | 149° |
| 2026-05-04 20:40 | 48.25316 | 21.52706 | 36053 ft | 463 kts | 149° |
| 2026-05-04 20:41 | 48.20681 | 21.56728 | 36064 ft | 463 kts | 149° |
| 2026-05-04 20:41 | 48.15105 | 21.61548 | 36071 ft | 463 kts | 149° |
| 2026-05-04 20:42 | 48.09521 | 21.66365 | 36072 ft | 463 kts | 149° |
| 2026-05-04 20:42 | 48.03936 | 21.71173 | 36076 ft | 463 kts | 149° |
| 2026-05-04 20:43 | 47.98346 | 21.75975 | 36078 ft | 464 kts | 149° |
| 2026-05-04 20:43 | 47.92743 | 21.80775 | 36072 ft | 464 kts | 149° |
| 2026-05-04 20:44 | 47.87163 | 21.85545 | 36067 ft | 465 kts | 149° |
| 2026-05-04 20:44 | 47.81545 | 21.90332 | 36060 ft | 466 kts | 149° |
| 2026-05-04 20:45 | 47.75918 | 21.95112 | 36054 ft | 466 kts | 149° |
| 2026-05-04 20:45 | 47.70281 | 21.99891 | 36064 ft | 467 kts | 149° |
| 2026-05-04 20:46 | 47.64627 | 22.04675 | 36060 ft | 468 kts | 149° |
| 2026-05-04 20:46 | 47.58965 | 22.09452 | 36064 ft | 468 kts | 150° |
| 2026-05-04 20:47 | 47.52974 | 22.13215 | 36067 ft | 469 kts | 159° |
| 2026-05-04 20:47 | 47.46836 | 22.16551 | 36069 ft | 470 kts | 159° |
| 2026-05-04 20:48 | 47.40690 | 22.19880 | 36077 ft | 470 kts | 159° |
| 2026-05-04 20:48 | 47.34544 | 22.23207 | 36073 ft | 470 kts | 159° |
| 2026-05-04 20:49 | 47.28440 | 22.26512 | 36077 ft | 471 kts | 159° |
| 2026-05-04 20:49 | 47.22277 | 22.29827 | 36078 ft | 472 kts | 159° |
| 2026-05-04 20:50 | 47.16115 | 22.33144 | 36093 ft | 472 kts | 159° |
| 2026-05-04 20:50 | 47.09936 | 22.36457 | 36106 ft | 472 kts | 159° |
| 2026-05-04 20:51 | 47.03771 | 22.39755 | 36106 ft | 472 kts | 159° |
| 2026-05-04 20:51 | 46.97585 | 22.43062 | 36107 ft | 473 kts | 159° |
| 2026-05-04 20:52 | 46.91443 | 22.46332 | 36110 ft | 473 kts | 159° |
| 2026-05-04 20:52 | 46.85255 | 22.49622 | 36112 ft | 473 kts | 159° |
| 2026-05-04 20:53 | 46.79064 | 22.52895 | 36111 ft | 473 kts | 159° |
| 2026-05-04 20:53 | 46.72875 | 22.56163 | 36142 ft | 473 kts | 159° |
| 2026-05-04 20:54 | 46.66676 | 22.59407 | 36140 ft | 473 kts | 159° |
| 2026-05-04 20:54 | 46.60477 | 22.62594 | 36151 ft | 473 kts | 160° |
| 2026-05-04 20:55 | 46.54257 | 22.65762 | 36148 ft | 473 kts | 160° |
| 2026-05-04 20:55 | 46.48042 | 22.68927 | 36150 ft | 473 kts | 160° |
| 2026-05-04 20:56 | 46.41834 | 22.72090 | 36159 ft | 473 kts | 160° |
| 2026-05-04 20:56 | 46.35626 | 22.75262 | 36158 ft | 472 kts | 160° |
| 2026-05-04 20:57 | 46.29437 | 22.78411 | 36147 ft | 472 kts | 160° |
| 2026-05-04 20:57 | 46.23274 | 22.81540 | 36140 ft | 472 kts | 160° |
| 2026-05-04 20:58 | 46.17074 | 22.84675 | 36138 ft | 472 kts | 160° |
| 2026-05-04 20:58 | 46.10870 | 22.87804 | 36142 ft | 472 kts | 160° |
| 2026-05-04 20:59 | 46.04664 | 22.90924 | 36132 ft | 472 kts | 160° |
| 2026-05-04 20:59 | 45.98457 | 22.94038 | 36131 ft | 472 kts | 160° |
| 2026-05-04 21:00 | 45.92254 | 22.97137 | 36125 ft | 472 kts | 160° |
| 2026-05-04 21:00 | 45.86040 | 23.00241 | 36123 ft | 472 kts | 160° |
| 2026-05-04 21:01 | 45.79826 | 23.03342 | 36133 ft | 473 kts | 160° |
| 2026-05-04 21:01 | 45.73649 | 23.06407 | 36137 ft | 473 kts | 160° |
| 2026-05-04 21:02 | 45.67427 | 23.09491 | 36137 ft | 473 kts | 160° |
| 2026-05-04 21:02 | 45.61203 | 23.12584 | 36135 ft | 473 kts | 160° |
| 2026-05-04 21:03 | 45.54985 | 23.15653 | 36138 ft | 473 kts | 160° |
| 2026-05-04 21:03 | 45.48756 | 23.18725 | 36151 ft | 473 kts | 160° |
| 2026-05-04 21:04 | 45.42542 | 23.21781 | 36139 ft | 473 kts | 160° |
| 2026-05-04 21:04 | 45.36322 | 23.24823 | 36129 ft | 473 kts | 160° |
| 2026-05-04 21:05 | 45.30095 | 23.27869 | 36120 ft | 473 kts | 160° |
| 2026-05-04 21:05 | 45.23880 | 23.30908 | 36108 ft | 473 kts | 160° |
| 2026-05-04 21:06 | 45.17691 | 23.33920 | 36101 ft | 473 kts | 160° |
| 2026-05-04 21:06 | 45.11467 | 23.36938 | 36087 ft | 473 kts | 160° |
| 2026-05-04 21:07 | 45.05324 | 23.40313 | 36083 ft | 472 kts | 155° |
| 2026-05-04 21:07 | 44.99362 | 23.44184 | 36077 ft | 472 kts | 154° |
| 2026-05-04 21:08 | 44.93411 | 23.48105 | 36073 ft | 472 kts | 154° |
| 2026-05-04 21:08 | 44.87403 | 23.51888 | 36083 ft | 471 kts | 155° |
| 2026-05-04 21:09 | 44.81395 | 23.55579 | 36081 ft | 471 kts | 155° |
| 2026-05-04 21:09 | 44.75431 | 23.59244 | 36079 ft | 470 kts | 155° |
| 2026-05-04 21:10 | 44.69439 | 23.62942 | 36082 ft | 470 kts | 155° |
| 2026-05-04 21:10 | 44.63454 | 23.66638 | 36072 ft | 470 kts | 155° |
| 2026-05-04 21:11 | 44.57477 | 23.70329 | 36074 ft | 470 kts | 155° |
| 2026-05-04 21:11 | 44.51491 | 23.74008 | 36065 ft | 469 kts | 155° |
| 2026-05-04 21:12 | 44.45512 | 23.77677 | 36059 ft | 469 kts | 156° |
| 2026-05-04 21:12 | 44.39521 | 23.81335 | 36043 ft | 469 kts | 156° |
| 2026-05-04 21:13 | 44.33525 | 23.84988 | 36052 ft | 470 kts | 156° |
| 2026-05-04 21:13 | 44.27531 | 23.88631 | 36073 ft | 469 kts | 156° |
| 2026-05-04 21:14 | 44.21537 | 23.92269 | 36063 ft | 469 kts | 156° |
| 2026-05-04 21:14 | 44.15553 | 23.95900 | 36071 ft | 469 kts | 156° |
| 2026-05-04 21:15 | 44.09560 | 23.99537 | 36071 ft | 469 kts | 156° |
| 2026-05-04 21:15 | 44.03610 | 24.03122 | 36096 ft | 469 kts | 156° |
| 2026-05-04 21:16 | 43.97627 | 24.06712 | 36103 ft | 468 kts | 156° |
| 2026-05-04 21:16 | 43.91653 | 24.10293 | 36094 ft | 468 kts | 156° |
| 2026-05-04 21:17 | 43.85681 | 24.13882 | 36095 ft | 467 kts | 156° |
| 2026-05-04 21:17 | 43.79718 | 24.17458 | 36101 ft | 467 kts | 156° |
| 2026-05-04 21:18 | 43.73747 | 24.21013 | 36097 ft | 466 kts | 157° |
| 2026-05-04 21:18 | 43.68083 | 24.25299 | 36102 ft | 466 kts | 142° |
| 2026-05-04 21:19 | 43.63335 | 24.31361 | 36089 ft | 465 kts | 135° |
| 2026-05-04 21:19 | 43.58679 | 24.37558 | 36112 ft | 465 kts | 135° |
| 2026-05-04 21:20 | 43.54010 | 24.43741 | 36109 ft | 465 kts | 135° |
| 2026-05-04 21:20 | 43.49357 | 24.49908 | 36114 ft | 465 kts | 135° |
| 2026-05-04 21:21 | 43.44695 | 24.56073 | 36096 ft | 465 kts | 135° |
| 2026-05-04 21:21 | 43.40028 | 24.62245 | 36105 ft | 465 kts | 135° |
| 2026-05-04 21:22 | 43.35363 | 24.68392 | 36101 ft | 465 kts | 135° |
| 2026-05-04 21:22 | 43.30715 | 24.74498 | 36099 ft | 465 kts | 135° |
| 2026-05-04 21:23 | 43.26027 | 24.80638 | 36097 ft | 465 kts | 135° |
| 2026-05-04 21:23 | 43.21341 | 24.86774 | 36107 ft | 465 kts | 135° |
| 2026-05-04 21:24 | 43.16645 | 24.92905 | 36099 ft | 465 kts | 135° |
| 2026-05-04 21:24 | 43.11962 | 24.99006 | 36100 ft | 465 kts | 135° |
| 2026-05-04 21:25 | 43.07271 | 25.05113 | 36103 ft | 465 kts | 135° |
| 2026-05-04 21:25 | 43.02583 | 25.11206 | 36108 ft | 465 kts | 135° |
| 2026-05-04 21:26 | 42.97914 | 25.17263 | 36111 ft | 465 kts | 135° |
| 2026-05-04 21:26 | 42.93215 | 25.23343 | 36110 ft | 465 kts | 135° |
| 2026-05-04 21:27 | 42.88510 | 25.29408 | 36102 ft | 465 kts | 135° |
| 2026-05-04 21:27 | 42.83786 | 25.35482 | 36091 ft | 466 kts | 135° |
| 2026-05-04 21:28 | 42.79062 | 25.41549 | 36094 ft | 467 kts | 135° |
| 2026-05-04 21:28 | 42.74342 | 25.47604 | 36099 ft | 467 kts | 135° |
| 2026-05-04 21:29 | 42.69612 | 25.53656 | 36114 ft | 467 kts | 135° |
| 2026-05-04 21:29 | 42.64875 | 25.59699 | 36133 ft | 466 kts | 135° |
| 2026-05-04 21:30 | 42.60157 | 25.65715 | 36105 ft | 465 kts | 136° |
| 2026-05-04 21:30 | 42.55459 | 25.71680 | 36084 ft | 465 kts | 136° |
| 2026-05-04 21:31 | 42.50756 | 25.77647 | 34913 ft | 462 kts | 135° |
| 2026-05-04 21:31 | 42.48407 | 25.80617 | 34260 ft | 461 kts | 135° |
| 2026-05-04 21:31 | 42.46064 | 25.83573 | 33543 ft | 460 kts | 136° |
| 2026-05-04 21:32 | 42.44485 | 25.85564 | 32982 ft | 461 kts | 136° |
| 2026-05-04 21:32 | 42.42130 | 25.88539 | 32087 ft | 463 kts | 136° |
| 2026-05-04 21:32 | 42.39769 | 25.91523 | 31174 ft | 466 kts | 136° |
| 2026-05-04 21:32 | 42.37394 | 25.94520 | 30450 ft | 469 kts | 136° |
| 2026-05-04 21:33 | 42.35029 | 25.97501 | 30194 ft | 472 kts | 136° |
| 2026-05-04 21:33 | 42.32616 | 26.00536 | 30036 ft | 474 kts | 136° |
| 2026-05-04 21:33 | 42.30197 | 26.03576 | 30091 ft | 477 kts | 136° |
| 2026-05-04 21:34 | 42.25328 | 26.09682 | 30089 ft | 478 kts | 136° |
| 2026-05-04 21:34 | 42.20447 | 26.15769 | 30090 ft | 478 kts | 136° |
| 2026-05-04 21:35 | 42.15561 | 26.21826 | 30090 ft | 478 kts | 136° |
| 2026-05-04 21:35 | 42.10663 | 26.27888 | 30093 ft | 478 kts | 136° |
| 2026-05-04 21:36 | 42.05761 | 26.33946 | 30093 ft | 478 kts | 136° |
| 2026-05-04 21:36 | 42.00870 | 26.39987 | 30114 ft | 478 kts | 135° |
| 2026-05-04 21:37 | 41.95958 | 26.46041 | 30098 ft | 478 kts | 135° |
| 2026-05-04 21:37 | 41.91046 | 26.52071 | 30097 ft | 478 kts | 135° |
| 2026-05-04 21:38 | 41.86782 | 26.58708 | 30097 ft | 471 kts | 115° |
| 2026-05-04 21:38 | 41.84512 | 26.66913 | 30098 ft | 468 kts | 105° |
| 2026-05-04 21:39 | 41.82455 | 26.75198 | 30100 ft | 468 kts | 105° |
| 2026-05-04 21:39 | 41.80392 | 26.83478 | 30099 ft | 468 kts | 105° |
| 2026-05-04 21:40 | 41.78305 | 26.91748 | 30101 ft | 468 kts | 105° |
| 2026-05-04 21:40 | 41.76204 | 27.00025 | 30101 ft | 469 kts | 105° |
| 2026-05-04 21:41 | 41.74105 | 27.08296 | 30098 ft | 469 kts | 105° |
| 2026-05-04 21:41 | 41.72001 | 27.16574 | 30100 ft | 469 kts | 105° |
| 2026-05-04 21:42 | 41.69902 | 27.24785 | 30110 ft | 469 kts | 105° |
| 2026-05-04 21:42 | 41.67785 | 27.33034 | 30032 ft | 467 kts | 105° |
| 2026-05-04 21:42 | 41.66730 | 27.37131 | 29336 ft | 463 kts | 105° |
| 2026-05-04 21:43 | 41.65701 | 27.41122 | 29156 ft | 446 kts | 105° |
| 2026-05-04 21:43 | 41.64704 | 27.44977 | 29013 ft | 431 kts | 105° |
| 2026-05-04 21:43 | 41.63738 | 27.48698 | 28874 ft | 417 kts | 104° |
| 2026-05-04 21:43 | 41.62800 | 27.52300 | 28739 ft | 403 kts | 104° |
| 2026-05-04 21:44 | 41.61892 | 27.55785 | 28624 ft | 390 kts | 103° |
| 2026-05-04 21:44 | 41.61015 | 27.59160 | 28488 ft | 378 kts | 103° |
| 2026-05-04 21:44 | 41.60165 | 27.62423 | 28350 ft | 366 kts | 103° |
| 2026-05-04 21:44 | 41.59336 | 27.65593 | 28206 ft | 355 kts | 103° |
| 2026-05-04 21:45 | 41.58533 | 27.68667 | 28063 ft | 345 kts | 102° |
| 2026-05-04 21:45 | 41.56971 | 27.74692 | 28089 ft | 342 kts | 102° |
| 2026-05-04 21:46 | 41.55420 | 27.80683 | 28081 ft | 342 kts | 102° |
| 2026-05-04 21:46 | 41.53843 | 27.86700 | 28083 ft | 342 kts | 103° |
| 2026-05-04 21:47 | 41.52262 | 27.92695 | 28079 ft | 343 kts | 103° |
| 2026-05-04 21:47 | 41.50680 | 27.98692 | 28078 ft | 343 kts | 103° |
| 2026-05-04 21:48 | 41.49098 | 28.04680 | 28075 ft | 343 kts | 103° |
| 2026-05-04 21:48 | 41.47516 | 28.10640 | 28075 ft | 343 kts | 103° |
| 2026-05-04 21:49 | 41.45920 | 28.16620 | 28077 ft | 343 kts | 102° |
| 2026-05-04 21:49 | 41.44327 | 28.22610 | 28070 ft | 343 kts | 102° |
| 2026-05-04 21:50 | 41.42730 | 28.28603 | 27952 ft | 344 kts | 102° |
| 2026-05-04 21:50 | 41.41933 | 28.31586 | 27686 ft | 340 kts | 102° |
| 2026-05-04 21:50 | 41.41139 | 28.34546 | 27417 ft | 338 kts | 102° |
| 2026-05-04 21:50 | 41.40341 | 28.37527 | 26592 ft | 349 kts | 102° |
| 2026-05-04 21:51 | 41.39519 | 28.40634 | 25659 ft | 362 kts | 102° |
| 2026-05-04 21:51 | 41.38666 | 28.43860 | 24736 ft | 375 kts | 102° |
| 2026-05-04 21:51 | 41.37782 | 28.47185 | 23798 ft | 387 kts | 102° |
| 2026-05-04 21:51 | 41.36862 | 28.50614 | 22745 ft | 398 kts | 103° |
| 2026-05-04 21:52 | 41.35919 | 28.54083 | 21986 ft | 400 kts | 103° |
| 2026-05-04 21:52 | 41.34965 | 28.57566 | 21254 ft | 401 kts | 104° |
| 2026-05-04 21:52 | 41.34018 | 28.61014 | 20525 ft | 402 kts | 104° |
| 2026-05-04 21:52 | 41.33045 | 28.64576 | 19778 ft | 404 kts | 104° |
| 2026-05-04 21:53 | 41.32110 | 28.68024 | 19058 ft | 405 kts | 104° |
| 2026-05-04 21:53 | 41.31153 | 28.71558 | 18351 ft | 407 kts | 104° |
| 2026-05-04 21:53 | 41.30192 | 28.75097 | 17530 ft | 407 kts | 104° |
| 2026-05-04 21:53 | 41.29226 | 28.78638 | 16849 ft | 405 kts | 104° |
| 2026-05-04 21:54 | 41.28267 | 28.82147 | 16162 ft | 403 kts | 104° |
| 2026-05-04 21:54 | 41.27312 | 28.85636 | 15498 ft | 402 kts | 104° |
| 2026-05-04 21:54 | 41.26354 | 28.89122 | 14857 ft | 399 kts | 104° |
| 2026-05-04 21:54 | 41.25406 | 28.92568 | 14215 ft | 397 kts | 104° |
| 2026-05-04 21:55 | 41.24458 | 28.96012 | 13555 ft | 395 kts | 104° |
| 2026-05-04 21:55 | 41.23521 | 28.99425 | 12933 ft | 390 kts | 104° |
| 2026-05-04 21:55 | 41.22594 | 29.02801 | 12340 ft | 386 kts | 104° |
| 2026-05-04 21:55 | 41.21678 | 29.06123 | 11854 ft | 376 kts | 104° |
| 2026-05-04 21:56 | 41.20801 | 29.09269 | 11870 ft | 349 kts | 104° |
| 2026-05-04 21:56 | 41.19981 | 29.12177 | 11889 ft | 325 kts | 104° |
| 2026-05-04 21:56 | 41.19211 | 29.14926 | 11762 ft | 310 kts | 103° |
| 2026-05-04 21:56 | 41.18493 | 29.17519 | 11636 ft | 296 kts | 103° |
| 2026-05-04 21:57 | 41.17801 | 29.20022 | 11506 ft | 284 kts | 102° |
| 2026-05-04 21:57 | 41.17133 | 29.22438 | 11388 ft | 274 kts | 102° |
| 2026-05-04 21:57 | 41.16484 | 29.24802 | 11142 ft | 269 kts | 102° |
| 2026-05-04 21:57 | 41.15846 | 29.27130 | 10846 ft | 267 kts | 102° |
| 2026-05-04 21:58 | 41.15211 | 29.29432 | 10536 ft | 266 kts | 102° |
| 2026-05-04 21:58 | 41.14570 | 29.31746 | 10180 ft | 267 kts | 103° |
| 2026-05-04 21:58 | 41.13927 | 29.34061 | 9837 ft | 267 kts | 103° |
| 2026-05-04 21:58 | 41.13286 | 29.36363 | 9493 ft | 266 kts | 103° |
| 2026-05-04 21:59 | 41.12642 | 29.38668 | 9137 ft | 265 kts | 103° |
| 2026-05-04 21:59 | 41.12000 | 29.40962 | 8829 ft | 264 kts | 103° |
| 2026-05-04 21:59 | 41.11377 | 29.43164 | 8713 ft | 245 kts | 103° |
| 2026-05-04 21:59 | 41.10793 | 29.45211 | 8498 ft | 232 kts | 102° |
| 2026-05-04 22:00 | 41.10234 | 29.47192 | 8122 ft | 228 kts | 102° |
| 2026-05-04 22:00 | 41.09689 | 29.49150 | 7691 ft | 226 kts | 102° |
| 2026-05-04 22:00 | 41.09154 | 29.51077 | 7285 ft | 224 kts | 102° |
| 2026-05-04 22:00 | 41.08616 | 29.53003 | 6879 ft | 223 kts | 102° |
| 2026-05-04 22:01 | 41.08080 | 29.54921 | 6483 ft | 221 kts | 102° |
| 2026-05-04 22:01 | 41.07548 | 29.56823 | 6063 ft | 220 kts | 102° |
| 2026-05-04 22:01 | 41.07011 | 29.58731 | 5610 ft | 220 kts | 102° |
| 2026-05-04 22:01 | 41.06475 | 29.60636 | 5207 ft | 220 kts | 105° |
| 2026-05-04 22:02 | 41.05653 | 29.62350 | 4805 ft | 224 kts | 130° |
| 2026-05-04 22:02 | 41.04348 | 29.63492 | 4184 ft | 230 kts | 157° |
| 2026-05-04 22:02 | 41.02775 | 29.63804 | 3616 ft | 228 kts | 187° |
| 2026-05-04 22:02 | 41.01353 | 29.63231 | 3494 ft | 201 kts | 213° |
| 2026-05-04 22:03 | 41.00338 | 29.62180 | 3493 ft | 174 kts | 236° |
| 2026-05-04 22:03 | 40.99700 | 29.60902 | 3487 ft | 160 kts | 252° |
| 2026-05-04 22:03 | 40.99219 | 29.59581 | 3497 ft | 158 kts | 251° |
| 2026-05-04 22:03 | 40.98740 | 29.58268 | 3498 ft | 158 kts | 251° |
| 2026-05-04 22:04 | 40.98260 | 29.56970 | 3498 ft | 156 kts | 251° |
| 2026-05-04 22:04 | 40.97780 | 29.55676 | 3504 ft | 157 kts | 251° |
| 2026-05-04 22:04 | 40.97548 | 29.54345 | 3479 ft | 142 kts | 289° |
| 2026-05-04 22:04 | 40.97740 | 29.53058 | 3495 ft | 148 kts | 274° |
| 2026-05-04 22:05 | 40.97331 | 29.51740 | 3505 ft | 159 kts | 253° |
| 2026-05-04 22:05 | 40.96916 | 29.50404 | 3510 ft | 157 kts | 257° |
| 2026-05-04 22:05 | 40.96482 | 29.49090 | 3488 ft | 155 kts | 255° |
| 2026-05-04 22:05 | 40.96034 | 29.47812 | 3291 ft | 152 kts | 254° |
| 2026-05-04 22:06 | 40.95583 | 29.46558 | 3073 ft | 150 kts | 253° |
| 2026-05-04 22:06 | 40.95134 | 29.45320 | 2895 ft | 150 kts | 253° |
| 2026-05-04 22:06 | 40.94684 | 29.44085 | 2624 ft | 148 kts | 253° |
| 2026-05-04 22:06 | 40.94238 | 29.42869 | 2385 ft | 146 kts | 253° |
| 2026-05-04 22:07 | 40.93795 | 29.41668 | 2101 ft | 144 kts | 252° |
| 2026-05-04 22:07 | 40.93378 | 29.40477 | 1843 ft | 141 kts | 252° |
| 2026-05-04 22:07 | 40.92957 | 29.39308 | 1584 ft | 141 kts | 248° |
| 2026-05-04 22:07 | 40.92475 | 29.38201 | 1361 ft | 140 kts | 245° |
| 2026-05-04 22:08 | 40.92073 | 29.37032 | 1163 ft | 137 kts | 255° |
| 2026-05-04 22:08 | 40.91691 | 29.35882 | 951 ft | 137 kts | 243° |
| 2026-05-04 22:08 | 40.91256 | 29.34780 | 717 ft | 133 kts | 249° |
| 2026-05-04 22:08 | 40.90849 | 29.33667 | 570 ft | 136 kts | 245° |
| 2026-05-04 22:09 | 40.90443 | 29.32542 | 397 ft | 136 kts | 248° |
| 2026-05-04 22:09 | 40.90063 | 29.31496 | 319 ft | 103 kts | 245° |
| 2026-05-04 22:09 | 40.89850 | 29.30897 | 320 ft | 38 kts | 246° |
| 2026-05-04 22:09 | 40.89817 | 29.30677 | 321 ft | 13 kts | 268° |
| 2026-05-04 22:10 | 40.89820 | 29.30557 | 321 ft | 12 kts | 274° |
| 2026-05-04 22:10 | 40.89844 | 29.30450 | 320 ft | 11 kts | 333° |
| 2026-05-04 22:10 | 40.89904 | 29.30490 | 320 ft | 10 kts | 56° |
| 2026-05-04 22:10 | 40.89932 | 29.30562 | 321 ft | 8 kts | 63° |
| 2026-05-04 22:11 | 40.89972 | 29.30666 | 321 ft | 16 kts | 63° |
| 2026-05-04 22:11 | 40.90020 | 29.30793 | 321 ft | 15 kts | 64° |
| 2026-05-04 22:11 | 40.90062 | 29.30908 | 321 ft | 13 kts | 64° |
| 2026-05-04 22:11 | 40.90100 | 29.31012 | 320 ft | 14 kts | 64° |
| 2026-05-04 22:12 | 40.90144 | 29.31131 | 321 ft | 14 kts | 64° |
| 2026-05-04 22:12 | 40.90184 | 29.31245 | 321 ft | 17 kts | 65° |
| 2026-05-04 22:12 | 40.90233 | 29.31381 | 321 ft | 16 kts | 65° |
| 2026-05-04 22:12 | 40.90286 | 29.31490 | 321 ft | 13 kts | 28° |
| 2026-05-04 22:13 | 40.90369 | 29.31465 | 321 ft | 13 kts | 335° |
| 2026-05-04 22:13 | 40.90438 | 29.31438 | 321 ft | 9 kts | 16° |
| 2026-05-04 22:13 | 40.90471 | 29.31494 | 321 ft | 7 kts | 59° |
| 2026-05-04 22:13 | 40.90516 | 29.31501 | 321 ft | 9 kts | 338° |
| 2026-05-04 22:14 | 40.90558 | 29.31477 | 321 ft | 2 kts | 336° |
| 2026-05-04 22:14 | 40.90562 | 29.31475 | 321 ft | 0 kts | 335° |